sensor_id;sensor_type;location;lat;lon;timestamp;pressure;altitude;pressure_sealevel;temperature;humidity
68948;BME280;55996;49.546;7.400;2023-07-16T00:00:11;98416.94;;;18.40;100.00
68948;BME280;55996;49.546;7.400;2023-07-16T00:02:38;98414.91;;;18.44;100.00
68948;BME280;55996;49.546;7.400;2023-07-16T00:05:04;98421.16;;;18.43;100.00
68948;BME280;55996;49.546;7.400;2023-07-16T00:07:29;98432.47;;;18.58;100.00
68948;BME280;55996;49.546;7.400;2023-07-16T00:09:55;98425.06;;;18.50;100.00
68948;BME280;55996;49.546;7.400;2023-07-16T00:12:20;98422.63;;;18.47;100.00
68948;BME280;55996;49.546;7.400;2023-07-16T00:14:47;98411.97;;;18.48;100.00
68948;BME280;55996;49.546;7.400;2023-07-16T00:17:13;98401.59;;;18.32;100.00
68948;BME280;55996;49.546;7.400;2023-07-16T00:19:38;98372.25;;;18.35;100.00
68948;BME280;55996;49.546;7.400;2023-07-16T00:22:04;98385.72;;;18.32;100.00
68948;BME280;55996;49.546;7.400;2023-07-16T00:24:29;98389.50;;;18.28;100.00
68948;BME280;55996;49.546;7.400;2023-07-16T00:26:55;98402.63;;;18.43;100.00
68948;BME280;55996;49.546;7.400;2023-07-16T00:29:20;98398.09;;;18.45;100.00
68948;BME280;55996;49.546;7.400;2023-07-16T00:31:45;98390.06;;;18.33;100.00
68948;BME280;55996;49.546;7.400;2023-07-16T00:34:11;98407.19;;;18.53;100.00
68948;BME280;55996;49.546;7.400;2023-07-16T00:36:38;98396.88;;;18.62;100.00
68948;BME280;55996;49.546;7.400;2023-07-16T00:39:03;98408.88;;;18.54;100.00
68948;BME280;55996;49.546;7.400;2023-07-16T00:41:29;98407.81;;;18.44;100.00
68948;BME280;55996;49.546;7.400;2023-07-16T00:43:54;98419.03;;;18.48;100.00
68948;BME280;55996;49.546;7.400;2023-07-16T00:46:20;98429.63;;;18.48;100.00
68948;BME280;55996;49.546;7.400;2023-07-16T00:48:45;98433.34;;;18.32;100.00
68948;BME280;55996;49.546;7.400;2023-07-16T00:51:11;98441.38;;;18.44;100.00
68948;BME280;55996;49.546;7.400;2023-07-16T00:53:36;98443.50;;;18.26;100.00
68948;BME280;55996;49.546;7.400;2023-07-16T00:56:02;98449.22;;;18.32;100.00
68948;BME280;55996;49.546;7.400;2023-07-16T00:58:27;98456.00;;;18.36;100.00
68948;BME280;55996;49.546;7.400;2023-07-16T01:00:53;98458.94;;;18.32;100.00
68948;BME280;55996;49.546;7.400;2023-07-16T01:03:18;98455.47;;;18.31;100.00
68948;BME280;55996;49.546;7.400;2023-07-16T01:08:46;98467.03;;;18.43;100.00
68948;BME280;55996;49.546;7.400;2023-07-16T01:11:12;98468.81;;;18.43;100.00
68948;BME280;55996;49.546;7.400;2023-07-16T01:13:38;98473.56;;;18.37;100.00
68948;BME280;55996;49.546;7.400;2023-07-16T01:16:04;98475.47;;;18.35;100.00
68948;BME280;55996;49.546;7.400;2023-07-16T01:18:30;98484.25;;;18.23;100.00
68948;BME280;55996;49.546;7.400;2023-07-16T01:20:55;98486.69;;;18.26;100.00
68948;BME280;55996;49.546;7.400;2023-07-16T01:23:44;98492.41;;;18.20;100.00
68948;BME280;55996;49.546;7.400;2023-07-16T01:27:16;98485.75;;;18.27;100.00
68948;BME280;55996;49.546;7.400;2023-07-16T01:29:45;98492.00;;;18.26;100.00
68948;BME280;55996;49.546;7.400;2023-07-16T01:32:13;98493.88;;;18.11;100.00
68948;BME280;55996;49.546;7.400;2023-07-16T01:34:39;98491.97;;;18.13;100.00
68948;BME280;55996;49.546;7.400;2023-07-16T01:37:05;98497.16;;;18.15;100.00
68948;BME280;55996;49.546;7.400;2023-07-16T01:39:31;98490.19;;;18.14;100.00
68948;BME280;55996;49.546;7.400;2023-07-16T01:42:00;98491.22;;;18.11;100.00
68948;BME280;55996;49.546;7.400;2023-07-16T01:44:25;98493.66;;;18.14;100.00
68948;BME280;55996;49.546;7.400;2023-07-16T01:47:10;98500.00;;;18.12;100.00
68948;BME280;55996;49.546;7.400;2023-07-16T01:49:36;98500.53;;;18.04;100.00
68948;BME280;55996;49.546;7.400;2023-07-16T01:52:03;98505.28;;;18.12;100.00
68948;BME280;55996;49.546;7.400;2023-07-16T01:54:29;98511.63;;;18.09;100.00
68948;BME280;55996;49.546;7.400;2023-07-16T01:56:54;98503.28;;;18.15;100.00
68948;BME280;55996;49.546;7.400;2023-07-16T01:59:20;98509.84;;;18.10;100.00
68948;BME280;55996;49.546;7.400;2023-07-16T02:01:45;98510.19;;;17.90;100.00
68948;BME280;55996;49.546;7.400;2023-07-16T02:04:11;98513.78;;;17.89;100.00
68948;BME280;55996;49.546;7.400;2023-07-16T02:06:36;98510.88;;;17.94;100.00
68948;BME280;55996;49.546;7.400;2023-07-16T02:09:01;98525.69;;;17.82;100.00
68948;BME280;55996;49.546;7.400;2023-07-16T02:11:27;98513.66;;;17.91;100.00
68948;BME280;55996;49.546;7.400;2023-07-16T02:13:52;98516.94;;;17.82;100.00
68948;BME280;55996;49.546;7.400;2023-07-16T02:16:18;98523.16;;;17.81;100.00
68948;BME280;55996;49.546;7.400;2023-07-16T02:18:43;98526.88;;;17.91;100.00
68948;BME280;55996;49.546;7.400;2023-07-16T02:21:09;98533.34;;;17.87;100.00
68948;BME280;55996;49.546;7.400;2023-07-16T02:23:34;98516.53;;;17.61;100.00
68948;BME280;55996;49.546;7.400;2023-07-16T02:26:00;98520.59;;;17.66;100.00
68948;BME280;55996;49.546;7.400;2023-07-16T02:28:26;98523.31;;;17.65;100.00
68948;BME280;55996;49.546;7.400;2023-07-16T02:30:51;98528.03;;;17.74;100.00
68948;BME280;55996;49.546;7.400;2023-07-16T02:33:17;98524.50;;;17.73;100.00
68948;BME280;55996;49.546;7.400;2023-07-16T02:35:46;98531.72;;;17.71;100.00
68948;BME280;55996;49.546;7.400;2023-07-16T02:38:12;98528.28;;;17.84;100.00
68948;BME280;55996;49.546;7.400;2023-07-16T02:40:46;98530.97;;;17.69;100.00
68948;BME280;55996;49.546;7.400;2023-07-16T02:43:12;98539.44;;;17.74;100.00
68948;BME280;55996;49.546;7.400;2023-07-16T02:45:37;98539.84;;;17.68;100.00
68948;BME280;55996;49.546;7.400;2023-07-16T02:48:05;98544.59;;;17.49;100.00
68948;BME280;55996;49.546;7.400;2023-07-16T02:50:35;98541.28;;;17.59;100.00
68948;BME280;55996;49.546;7.400;2023-07-16T02:53:03;98544.31;;;17.53;100.00
68948;BME280;55996;49.546;7.400;2023-07-16T02:55:28;98544.22;;;17.55;100.00
68948;BME280;55996;49.546;7.400;2023-07-16T02:57:54;98545.91;;;17.56;100.00
68948;BME280;55996;49.546;7.400;2023-07-16T03:00:19;98547.44;;;17.60;100.00
68948;BME280;55996;49.546;7.400;2023-07-16T03:02:45;98548.00;;;17.51;100.00
68948;BME280;55996;49.546;7.400;2023-07-16T03:05:10;98553.09;;;17.54;100.00
68948;BME280;55996;49.546;7.400;2023-07-16T03:07:36;98554.88;;;17.53;100.00
68948;BME280;55996;49.546;7.400;2023-07-16T03:10:01;98560.56;;;17.47;100.00
68948;BME280;55996;49.546;7.400;2023-07-16T03:12:27;98555.06;;;17.23;100.00
68948;BME280;55996;49.546;7.400;2023-07-16T03:14:52;98564.53;;;17.40;100.00
68948;BME280;55996;49.546;7.400;2023-07-16T03:17:20;98565.97;;;17.31;100.00
68948;BME280;55996;49.546;7.400;2023-07-16T03:19:47;98567.78;;;17.31;100.00
68948;BME280;55996;49.546;7.400;2023-07-16T03:22:12;98565.69;;;17.36;100.00
68948;BME280;55996;49.546;7.400;2023-07-16T03:24:38;98575.22;;;17.38;100.00
68948;BME280;55996;49.546;7.400;2023-07-16T03:27:04;98580.16;;;17.16;100.00
68948;BME280;55996;49.546;7.400;2023-07-16T03:29:29;98578.34;;;17.31;100.00
68948;BME280;55996;49.546;7.400;2023-07-16T03:31:55;98576.56;;;17.17;100.00
68948;BME280;55996;49.546;7.400;2023-07-16T03:34:20;98574.88;;;17.16;100.00
68948;BME280;55996;49.546;7.400;2023-07-16T03:36:45;98577.31;;;17.04;100.00
68948;BME280;55996;49.546;7.400;2023-07-16T03:39:11;98579.47;;;17.12;100.00
68948;BME280;55996;49.546;7.400;2023-07-16T03:41:36;98583.34;;;17.21;100.00
68948;BME280;55996;49.546;7.400;2023-07-16T03:44:02;98584.38;;;17.18;100.00
68948;BME280;55996;49.546;7.400;2023-07-16T03:46:27;98588.34;;;17.11;100.00
68948;BME280;55996;49.546;7.400;2023-07-16T03:48:53;98590.16;;;17.10;100.00
68948;BME280;55996;49.546;7.400;2023-07-16T03:51:18;98589.84;;;17.15;100.00
68948;BME280;55996;49.546;7.400;2023-07-16T03:53:44;98587.13;;;17.17;100.00
68948;BME280;55996;49.546;7.400;2023-07-16T03:56:09;98600.06;;;17.07;100.00
68948;BME280;55996;49.546;7.400;2023-07-16T03:58:35;98601.38;;;17.00;100.00
68948;BME280;55996;49.546;7.400;2023-07-16T04:01:00;98614.66;;;16.98;100.00
68948;BME280;55996;49.546;7.400;2023-07-16T04:03:26;98600.22;;;17.04;100.00
68948;BME280;55996;49.546;7.400;2023-07-16T04:05:51;98608.16;;;17.04;100.00
68948;BME280;55996;49.546;7.400;2023-07-16T04:08:16;98610.88;;;17.02;100.00
68948;BME280;55996;49.546;7.400;2023-07-16T04:10:42;98612.59;;;17.03;100.00
68948;BME280;55996;49.546;7.400;2023-07-16T04:13:07;98618.91;;;17.01;100.00
68948;BME280;55996;49.546;7.400;2023-07-16T04:15:33;98619.59;;;17.04;100.00
68948;BME280;55996;49.546;7.400;2023-07-16T04:17:58;98616.75;;;17.07;100.00
68948;BME280;55996;49.546;7.400;2023-07-16T04:20:23;98614.59;;;17.14;100.00
68948;BME280;55996;49.546;7.400;2023-07-16T04:22:49;98625.13;;;17.00;100.00
68948;BME280;55996;49.546;7.400;2023-07-16T04:25:15;98624.75;;;17.06;100.00
68948;BME280;55996;49.546;7.400;2023-07-16T04:27:41;98627.78;;;17.00;100.00
68948;BME280;55996;49.546;7.400;2023-07-16T04:30:08;98624.19;;;17.01;100.00
68948;BME280;55996;49.546;7.400;2023-07-16T04:32:33;98628.16;;;17.08;100.00
68948;BME280;55996;49.546;7.400;2023-07-16T04:34:59;98620.88;;;17.12;100.00
68948;BME280;55996;49.546;7.400;2023-07-16T04:37:24;98626.38;;;17.08;100.00
68948;BME280;55996;49.546;7.400;2023-07-16T04:39:50;98635.31;;;17.06;100.00
68948;BME280;55996;49.546;7.400;2023-07-16T04:42:15;98641.00;;;17.14;100.00
68948;BME280;55996;49.546;7.400;2023-07-16T04:44:42;98641.66;;;17.03;100.00
68948;BME280;55996;49.546;7.400;2023-07-16T04:47:07;98636.84;;;17.10;100.00
68948;BME280;55996;49.546;7.400;2023-07-16T04:49:34;98637.50;;;17.14;100.00
68948;BME280;55996;49.546;7.400;2023-07-16T04:52:00;98637.03;;;17.07;100.00
68948;BME280;55996;49.546;7.400;2023-07-16T04:54:26;98638.63;;;17.09;100.00
68948;BME280;55996;49.546;7.400;2023-07-16T04:56:51;98651.47;;;17.16;100.00
68948;BME280;55996;49.546;7.400;2023-07-16T04:59:16;98637.97;;;17.06;100.00
68948;BME280;55996;49.546;7.400;2023-07-16T05:01:42;98644.03;;;17.08;100.00
68948;BME280;55996;49.546;7.400;2023-07-16T05:04:07;98648.44;;;17.07;100.00
68948;BME280;55996;49.546;7.400;2023-07-16T05:06:33;98648.25;;;16.96;100.00
68948;BME280;55996;49.546;7.400;2023-07-16T05:08:59;98651.44;;;17.01;100.00
68948;BME280;55996;49.546;7.400;2023-07-16T05:11:24;98661.59;;;16.93;100.00
68948;BME280;55996;49.546;7.400;2023-07-16T05:13:50;98666.47;;;17.01;100.00
68948;BME280;55996;49.546;7.400;2023-07-16T05:16:16;98659.41;;;17.16;100.00
68948;BME280;55996;49.546;7.400;2023-07-16T05:18:41;98665.06;;;17.09;100.00
68948;BME280;55996;49.546;7.400;2023-07-16T05:21:07;98670.53;;;17.21;100.00
68948;BME280;55996;49.546;7.400;2023-07-16T05:23:32;98674.88;;;17.22;100.00
68948;BME280;55996;49.546;7.400;2023-07-16T05:25:57;98665.06;;;17.38;100.00
68948;BME280;55996;49.546;7.400;2023-07-16T05:28:24;98649.94;;;17.55;100.00
68948;BME280;55996;49.546;7.400;2023-07-16T05:31:00;98664.97;;;18.38;100.00
68948;BME280;55996;49.546;7.400;2023-07-16T05:33:26;98661.75;;;18.60;100.00
68948;BME280;55996;49.546;7.400;2023-07-16T05:35:51;98664.88;;;18.67;100.00
68948;BME280;55996;49.546;7.400;2023-07-16T05:38:16;98678.88;;;18.42;100.00
68948;BME280;55996;49.546;7.400;2023-07-16T05:40:42;98677.03;;;18.29;100.00
68948;BME280;55996;49.546;7.400;2023-07-16T05:43:07;98672.75;;;17.85;100.00
68948;BME280;55996;49.546;7.400;2023-07-16T05:45:33;98671.63;;;17.89;100.00
68948;BME280;55996;49.546;7.400;2023-07-16T05:47:59;98680.06;;;17.67;100.00
68948;BME280;55996;49.546;7.400;2023-07-16T05:50:25;98684.88;;;17.74;100.00
68948;BME280;55996;49.546;7.400;2023-07-16T05:52:50;98685.44;;;17.65;100.00
68948;BME280;55996;49.546;7.400;2023-07-16T05:55:17;98681.75;;;17.39;100.00
68948;BME280;55996;49.546;7.400;2023-07-16T05:57:42;98681.09;;;17.50;100.00
68948;BME280;55996;49.546;7.400;2023-07-16T06:00:08;98690.81;;;17.64;100.00
68948;BME280;55996;49.546;7.400;2023-07-16T06:02:34;98694.81;;;17.56;100.00
68948;BME280;55996;49.546;7.400;2023-07-16T06:05:00;98691.78;;;17.63;100.00
68948;BME280;55996;49.546;7.400;2023-07-16T06:07:25;98689.88;;;17.65;100.00
68948;BME280;55996;49.546;7.400;2023-07-16T06:09:50;98694.22;;;17.80;100.00
68948;BME280;55996;49.546;7.400;2023-07-16T06:12:16;98694.50;;;17.90;100.00
68948;BME280;55996;49.546;7.400;2023-07-16T06:14:41;98691.84;;;18.04;100.00
68948;BME280;55996;49.546;7.400;2023-07-16T06:17:07;98692.97;;;18.15;100.00
68948;BME280;55996;49.546;7.400;2023-07-16T06:19:32;98683.50;;;18.11;100.00
68948;BME280;55996;49.546;7.400;2023-07-16T06:21:58;98691.75;;;18.06;100.00
68948;BME280;55996;49.546;7.400;2023-07-16T06:24:23;98696.19;;;18.05;100.00
68948;BME280;55996;49.546;7.400;2023-07-16T06:26:48;98701.78;;;17.86;100.00
68948;BME280;55996;49.546;7.400;2023-07-16T06:29:14;98689.19;;;18.04;100.00
68948;BME280;55996;49.546;7.400;2023-07-16T06:31:42;98692.16;;;18.27;100.00
68948;BME280;55996;49.546;7.400;2023-07-16T06:34:08;98696.25;;;18.46;100.00
68948;BME280;55996;49.546;7.400;2023-07-16T06:36:33;98710.19;;;18.62;100.00
68948;BME280;55996;49.546;7.400;2023-07-16T06:38:58;98706.31;;;18.81;100.00
68948;BME280;55996;49.546;7.400;2023-07-16T06:41:25;98703.22;;;18.47;100.00
68948;BME280;55996;49.546;7.400;2023-07-16T06:43:51;98697.72;;;18.37;100.00
68948;BME280;55996;49.546;7.400;2023-07-16T06:46:16;98706.47;;;18.65;100.00
68948;BME280;55996;49.546;7.400;2023-07-16T06:48:42;98715.22;;;18.80;100.00
68948;BME280;55996;49.546;7.400;2023-07-16T06:51:07;98699.59;;;19.02;100.00
68948;BME280;55996;49.546;7.400;2023-07-16T06:53:33;98714.66;;;19.02;100.00
68948;BME280;55996;49.546;7.400;2023-07-16T06:55:58;98710.06;;;18.91;100.00
68948;BME280;55996;49.546;7.400;2023-07-16T06:58:33;98708.44;;;18.88;100.00
68948;BME280;55996;49.546;7.400;2023-07-16T07:00:59;98711.47;;;19.10;100.00
68948;BME280;55996;49.546;7.400;2023-07-16T07:03:25;98717.75;;;19.22;100.00
68948;BME280;55996;49.546;7.400;2023-07-16T07:05:50;98713.50;;;19.19;100.00
68948;BME280;55996;49.546;7.400;2023-07-16T07:08:15;98708.84;;;19.23;100.00
68948;BME280;55996;49.546;7.400;2023-07-16T07:10:41;98719.44;;;19.48;100.00
68948;BME280;55996;49.546;7.400;2023-07-16T07:13:06;98720.28;;;19.62;100.00
68948;BME280;55996;49.546;7.400;2023-07-16T07:15:32;98714.97;;;19.62;100.00
68948;BME280;55996;49.546;7.400;2023-07-16T07:17:57;98725.38;;;19.52;100.00
68948;BME280;55996;49.546;7.400;2023-07-16T07:20:23;98711.59;;;19.73;100.00
68948;BME280;55996;49.546;7.400;2023-07-16T07:22:48;98717.94;;;19.57;100.00
68948;BME280;55996;49.546;7.400;2023-07-16T07:25:13;98718.59;;;19.74;100.00
68948;BME280;55996;49.546;7.400;2023-07-16T07:27:39;98711.03;;;19.80;100.00
68948;BME280;55996;49.546;7.400;2023-07-16T07:30:05;98721.00;;;20.03;100.00
68948;BME280;55996;49.546;7.400;2023-07-16T07:32:30;98726.53;;;19.99;100.00
68948;BME280;55996;49.546;7.400;2023-07-16T07:34:56;98713.78;;;19.92;93.05
68948;BME280;55996;49.546;7.400;2023-07-16T07:37:21;98713.28;;;19.99;94.02
68948;BME280;55996;49.546;7.400;2023-07-16T07:39:51;98713.22;;;20.12;98.46
68948;BME280;55996;49.546;7.400;2023-07-16T07:42:17;98710.59;;;20.37;91.67
68948;BME280;55996;49.546;7.400;2023-07-16T07:44:43;98712.63;;;20.33;85.14
68948;BME280;55996;49.546;7.400;2023-07-16T07:47:08;98712.16;;;20.63;99.80
68948;BME280;55996;49.546;7.400;2023-07-16T07:49:34;98708.13;;;21.06;94.43
68948;BME280;55996;49.546;7.400;2023-07-16T07:51:59;98705.69;;;21.03;88.09
68948;BME280;55996;49.546;7.400;2023-07-16T07:54:25;98708.84;;;21.20;87.78
68948;BME280;55996;49.546;7.400;2023-07-16T07:56:50;98714.44;;;21.17;85.09
68948;BME280;55996;49.546;7.400;2023-07-16T07:59:16;98713.97;;;21.23;85.52
68948;BME280;55996;49.546;7.400;2023-07-16T08:01:41;98705.72;;;21.15;81.23
68948;BME280;55996;49.546;7.400;2023-07-16T08:04:07;98716.75;;;21.33;83.08
68948;BME280;55996;49.546;7.400;2023-07-16T08:06:32;98719.56;;;21.42;78.14
68948;BME280;55996;49.546;7.400;2023-07-16T08:08:58;98721.13;;;21.45;79.75
68948;BME280;55996;49.546;7.400;2023-07-16T08:11:23;98719.28;;;21.23;75.19
68948;BME280;55996;49.546;7.400;2023-07-16T08:13:49;98722.88;;;21.57;79.14
68948;BME280;55996;49.546;7.400;2023-07-16T08:16:14;98714.78;;;21.23;73.71
68948;BME280;55996;49.546;7.400;2023-07-16T08:18:40;98717.72;;;21.43;82.02
68948;BME280;55996;49.546;7.400;2023-07-16T08:21:05;98734.34;;;21.11;69.95
68948;BME280;55996;49.546;7.400;2023-07-16T08:23:31;98728.09;;;21.23;76.80
68948;BME280;55996;49.546;7.400;2023-07-16T08:25:57;98730.00;;;21.10;75.77
68948;BME280;55996;49.546;7.400;2023-07-16T08:28:22;98732.31;;;20.79;74.44
68948;BME280;55996;49.546;7.400;2023-07-16T08:30:48;98731.41;;;20.43;74.18
68948;BME280;55996;49.546;7.400;2023-07-16T08:33:14;98733.75;;;20.72;69.14
68948;BME280;55996;49.546;7.400;2023-07-16T08:35:40;98739.22;;;20.82;71.55
68948;BME280;55996;49.546;7.400;2023-07-16T08:38:06;98740.09;;;20.93;73.49
68948;BME280;55996;49.546;7.400;2023-07-16T08:40:36;98750.97;;;20.90;70.00
68948;BME280;55996;49.546;7.400;2023-07-16T08:43:03;98746.59;;;21.25;72.89
68948;BME280;55996;49.546;7.400;2023-07-16T08:45:31;98729.47;;;20.93;73.21
68948;BME280;55996;49.546;7.400;2023-07-16T08:48:02;98744.31;;;20.96;72.09
68948;BME280;55996;49.546;7.400;2023-07-16T08:50:28;98742.09;;;21.14;71.64
68948;BME280;55996;49.546;7.400;2023-07-16T08:52:55;98737.13;;;21.09;69.18
68948;BME280;55996;49.546;7.400;2023-07-16T08:55:21;98736.66;;;21.63;68.17
68948;BME280;55996;49.546;7.400;2023-07-16T08:57:47;98733.00;;;21.86;69.45
68948;BME280;55996;49.546;7.400;2023-07-16T09:00:14;98743.19;;;21.70;64.46
68948;BME280;55996;49.546;7.400;2023-07-16T09:02:41;98735.47;;;21.78;65.34
68948;BME280;55996;49.546;7.400;2023-07-16T09:05:09;98753.97;;;21.91;62.63
68948;BME280;55996;49.546;7.400;2023-07-16T09:07:35;98725.66;;;21.67;64.29
68948;BME280;55996;49.546;7.400;2023-07-16T09:10:03;98733.97;;;21.97;61.99
68948;BME280;55996;49.546;7.400;2023-07-16T09:12:28;98731.63;;;22.37;63.68
68948;BME280;55996;49.546;7.400;2023-07-16T09:14:55;98744.13;;;22.25;70.34
68948;BME280;55996;49.546;7.400;2023-07-16T09:17:24;98747.78;;;21.79;62.62
68948;BME280;55996;49.546;7.400;2023-07-16T09:19:53;98744.16;;;21.91;61.48
68948;BME280;55996;49.546;7.400;2023-07-16T09:22:19;98744.97;;;22.26;60.38
68948;BME280;55996;49.546;7.400;2023-07-16T09:24:46;98750.66;;;22.44;62.83
68948;BME280;55996;49.546;7.400;2023-07-16T09:27:13;98739.63;;;22.81;60.15
68948;BME280;55996;49.546;7.400;2023-07-16T09:29:39;98744.28;;;22.68;58.36
68948;BME280;55996;49.546;7.400;2023-07-16T09:32:05;98747.94;;;22.88;57.63
68948;BME280;55996;49.546;7.400;2023-07-16T09:34:31;98743.25;;;23.55;64.19
68948;BME280;55996;49.546;7.400;2023-07-16T09:37:00;98750.31;;;23.66;53.24
68948;BME280;55996;49.546;7.400;2023-07-16T09:39:26;98741.81;;;24.03;51.06
68948;BME280;55996;49.546;7.400;2023-07-16T09:41:52;98738.97;;;23.74;52.79
68948;BME280;55996;49.546;7.400;2023-07-16T09:44:19;98738.84;;;23.23;52.43
68948;BME280;55996;49.546;7.400;2023-07-16T09:46:45;98753.16;;;22.89;56.43
68948;BME280;55996;49.546;7.400;2023-07-16T09:49:11;98750.28;;;22.81;58.42
68948;BME280;55996;49.546;7.400;2023-07-16T09:51:37;98762.28;;;22.76;56.47
68948;BME280;55996;49.546;7.400;2023-07-16T09:54:04;98758.91;;;22.73;58.18
68948;BME280;55996;49.546;7.400;2023-07-16T09:56:39;98754.75;;;22.81;58.55
68948;BME280;55996;49.546;7.400;2023-07-16T09:59:08;98760.88;;;22.71;57.94
68948;BME280;55996;49.546;7.400;2023-07-16T10:01:37;98747.59;;;22.60;55.87
68948;BME280;55996;49.546;7.400;2023-07-16T10:04:22;98751.72;;;22.85;59.70
68948;BME280;55996;49.546;7.400;2023-07-16T10:06:57;98744.25;;;23.00;52.42
68948;BME280;55996;49.546;7.400;2023-07-16T10:09:33;98753.69;;;23.16;58.22
68948;BME280;55996;49.546;7.400;2023-07-16T10:14:40;98750.09;;;22.94;58.29
68948;BME280;55996;49.546;7.400;2023-07-16T10:17:05;98747.69;;;23.24;59.50
68948;BME280;55996;49.546;7.400;2023-07-16T10:19:34;98749.44;;;23.87;50.71
68948;BME280;55996;49.546;7.400;2023-07-16T10:21:59;98743.59;;;23.41;49.86
68948;BME280;55996;49.546;7.400;2023-07-16T10:24:27;98756.75;;;23.32;57.45
68948;BME280;55996;49.546;7.400;2023-07-16T10:26:52;98755.72;;;22.91;56.25
68948;BME280;55996;49.546;7.400;2023-07-16T10:29:18;98745.53;;;22.64;57.54
68948;BME280;55996;49.546;7.400;2023-07-16T10:31:44;98745.94;;;22.36;58.20
68948;BME280;55996;49.546;7.400;2023-07-16T10:34:10;98753.06;;;22.47;56.93
68948;BME280;55996;49.546;7.400;2023-07-16T10:36:40;98749.06;;;23.07;55.30
68948;BME280;55996;49.546;7.400;2023-07-16T10:39:05;98730.69;;;23.03;56.34
68948;BME280;55996;49.546;7.400;2023-07-16T10:41:31;98742.53;;;23.32;52.75
68948;BME280;55996;49.546;7.400;2023-07-16T10:44:00;98735.16;;;23.66;52.13
68948;BME280;55996;49.546;7.400;2023-07-16T10:46:27;98739.69;;;23.24;55.00
68948;BME280;55996;49.546;7.400;2023-07-16T10:48:52;98737.59;;;23.48;49.54
68948;BME280;55996;49.546;7.400;2023-07-16T10:51:25;98732.53;;;24.07;48.95
68948;BME280;55996;49.546;7.400;2023-07-16T10:53:50;98722.13;;;24.74;52.23
68948;BME280;55996;49.546;7.400;2023-07-16T10:56:16;98719.19;;;24.77;50.85
68948;BME280;55996;49.546;7.400;2023-07-16T10:58:42;98729.69;;;25.18;47.34
68948;BME280;55996;49.546;7.400;2023-07-16T11:01:11;98717.63;;;24.85;45.62
68948;BME280;55996;49.546;7.400;2023-07-16T11:03:36;98735.06;;;24.89;47.56
68948;BME280;55996;49.546;7.400;2023-07-16T11:06:11;98747.97;;;25.23;50.85
68948;BME280;55996;49.546;7.400;2023-07-16T11:08:42;98741.41;;;24.88;47.71
68948;BME280;55996;49.546;7.400;2023-07-16T11:11:07;98732.66;;;25.05;47.95
68948;BME280;55996;49.546;7.400;2023-07-16T11:13:33;98739.13;;;25.12;44.26
68948;BME280;55996;49.546;7.400;2023-07-16T11:16:09;98728.72;;;25.09;50.24
68948;BME280;55996;49.546;7.400;2023-07-16T11:18:34;98736.72;;;24.60;48.19
68948;BME280;55996;49.546;7.400;2023-07-16T11:21:00;98730.81;;;24.57;46.29
68948;BME280;55996;49.546;7.400;2023-07-16T11:23:25;98726.03;;;24.60;52.40
68948;BME280;55996;49.546;7.400;2023-07-16T11:25:52;98734.00;;;24.41;51.19
68948;BME280;55996;49.546;7.400;2023-07-16T11:28:17;98732.78;;;24.45;46.71
68948;BME280;55996;49.546;7.400;2023-07-16T11:30:43;98719.94;;;24.29;47.35
68948;BME280;55996;49.546;7.400;2023-07-16T11:33:12;98731.84;;;24.95;47.42
68948;BME280;55996;49.546;7.400;2023-07-16T11:35:39;98720.06;;;25.45;45.66
68948;BME280;55996;49.546;7.400;2023-07-16T11:38:05;98728.72;;;25.76;47.84
68948;BME280;55996;49.546;7.400;2023-07-16T11:40:33;98737.00;;;25.36;44.03
68948;BME280;55996;49.546;7.400;2023-07-16T11:43:10;98734.34;;;24.87;45.41
68948;BME280;55996;49.546;7.400;2023-07-16T11:45:36;98736.63;;;24.91;46.29
68948;BME280;55996;49.546;7.400;2023-07-16T11:48:02;98705.31;;;25.41;48.44
68948;BME280;55996;49.546;7.400;2023-07-16T11:50:28;98700.09;;;25.77;47.46
68948;BME280;55996;49.546;7.400;2023-07-16T11:52:55;98708.09;;;25.87;47.60
68948;BME280;55996;49.546;7.400;2023-07-16T11:55:22;98719.00;;;25.75;45.58
68948;BME280;55996;49.546;7.400;2023-07-16T11:57:49;98711.38;;;25.81;44.56
68948;BME280;55996;49.546;7.400;2023-07-16T12:00:14;98706.28;;;26.15;45.11
68948;BME280;55996;49.546;7.400;2023-07-16T12:02:40;98712.69;;;25.94;42.89
68948;BME280;55996;49.546;7.400;2023-07-16T12:05:05;98722.38;;;26.33;42.00
68948;BME280;55996;49.546;7.400;2023-07-16T12:07:36;98710.88;;;26.87;43.09
68948;BME280;55996;49.546;7.400;2023-07-16T12:10:04;98710.28;;;27.19;42.07
68948;BME280;55996;49.546;7.400;2023-07-16T12:12:30;98703.91;;;26.94;41.11
68948;BME280;55996;49.546;7.400;2023-07-16T12:14:55;98705.53;;;25.95;43.45
68948;BME280;55996;49.546;7.400;2023-07-16T12:17:21;98709.25;;;25.27;42.51
68948;BME280;55996;49.546;7.400;2023-07-16T12:19:46;98702.00;;;24.80;46.59
68948;BME280;55996;49.546;7.400;2023-07-16T12:22:12;98713.22;;;24.54;47.43
68948;BME280;55996;49.546;7.400;2023-07-16T12:24:39;98711.69;;;24.61;49.71
68948;BME280;55996;49.546;7.400;2023-07-16T12:27:04;98709.00;;;24.52;48.04
68948;BME280;55996;49.546;7.400;2023-07-16T12:29:30;98697.56;;;24.40;47.40
68948;BME280;55996;49.546;7.400;2023-07-16T12:31:55;98708.16;;;24.41;49.27
68948;BME280;55996;49.546;7.400;2023-07-16T12:34:20;98711.66;;;24.52;48.38
68948;BME280;55996;49.546;7.400;2023-07-16T12:36:46;98705.34;;;24.43;47.50
68948;BME280;55996;49.546;7.400;2023-07-16T12:39:11;98709.13;;;24.40;45.40
68948;BME280;55996;49.546;7.400;2023-07-16T12:41:37;98709.13;;;24.50;47.77
68948;BME280;55996;49.546;7.400;2023-07-16T12:44:02;98706.47;;;24.50;47.30
68948;BME280;55996;49.546;7.400;2023-07-16T12:46:28;98718.84;;;24.51;48.48
68948;BME280;55996;49.546;7.400;2023-07-16T12:48:53;98706.31;;;24.52;45.06
68948;BME280;55996;49.546;7.400;2023-07-16T12:51:19;98709.38;;;24.37;46.18
68948;BME280;55996;49.546;7.400;2023-07-16T12:53:44;98699.66;;;24.16;47.86
68948;BME280;55996;49.546;7.400;2023-07-16T12:56:10;98695.06;;;24.38;46.86